createdAt,value
2023-04-16T00:00:26.441Z,4.28
2023-04-16T00:04:42.986Z,4.60
2023-04-16T00:08:59.554Z,4.68
2023-04-16T00:13:15.850Z,4.70
2023-04-16T00:17:32.145Z,4.80
2023-04-16T00:21:48.485Z,4.95
2023-04-16T00:26:05.079Z,4.75
2023-04-16T00:30:21.350Z,4.78
2023-04-16T00:34:37.609Z,5.05
2023-04-16T00:38:54.116Z,4.72
2023-04-16T00:43:10.300Z,5.25
2023-04-16T00:47:28.320Z,5.43
2023-04-16T00:51:44.681Z,5.25
2023-04-16T00:56:02.670Z,5.22
2023-04-16T01:00:21.504Z,5.22
2023-04-16T01:04:37.844Z,5.62
2023-04-16T01:08:54.088Z,4.93
2023-04-16T01:13:10.341Z,5.55
2023-04-16T01:17:26.645Z,4.90
2023-04-16T01:21:42.971Z,5.30
2023-04-16T01:25:59.239Z,4.78
2023-04-16T01:30:15.592Z,5.00
2023-04-16T01:34:31.754Z,5.35
2023-04-16T01:38:48.116Z,5.47
2023-04-16T01:43:04.941Z,4.65
2023-04-16T01:47:21.660Z,4.60
2023-04-16T01:51:37.840Z,5.25
2023-04-16T01:55:54.138Z,5.45
2023-04-16T02:00:10.652Z,5.45
2023-04-16T02:04:26.934Z,5.00
2023-04-16T02:08:43.473Z,5.70
2023-04-16T02:12:59.673Z,5.03
2023-04-16T02:17:15.964Z,5.50
2023-04-16T02:21:32.109Z,5.87
2023-04-16T02:25:48.495Z,5.12
2023-04-16T02:30:05.173Z,5.47
2023-04-16T02:34:21.387Z,5.30
2023-04-16T02:38:37.830Z,5.40
2023-04-16T02:42:54.438Z,5.15
2023-04-16T02:47:10.601Z,5.32
2023-04-16T02:51:27.915Z,4.70
2023-04-16T02:55:52.868Z,5.87
2023-04-16T03:00:10.075Z,5.60
2023-04-16T03:04:26.455Z,5.47
2023-04-16T03:08:42.683Z,6.50
2023-04-16T03:12:59.239Z,5.37
2023-04-16T03:17:15.624Z,4.85
2023-04-16T03:21:32.126Z,4.55
2023-04-16T03:25:48.372Z,4.60
2023-04-16T03:30:05.059Z,4.97
2023-04-16T03:34:21.302Z,5.07
2023-04-16T03:38:37.635Z,4.82
2023-04-16T03:42:53.814Z,3.97
2023-04-16T03:47:10.144Z,4.62
2023-04-16T03:51:26.592Z,4.82
2023-04-16T03:55:43.224Z,4.37
2023-04-16T03:59:59.426Z,4.87
2023-04-16T04:04:16.009Z,5.00
2023-04-16T04:08:32.276Z,4.75
2023-04-16T04:12:48.451Z,4.72
2023-04-16T04:17:04.674Z,4.47
2023-04-16T04:21:21.048Z,5.18
2023-04-16T04:25:37.659Z,4.45
2023-04-16T04:29:54.520Z,5.10
2023-04-16T04:34:10.821Z,5.57
2023-04-16T04:38:27.135Z,5.03
2023-04-16T04:42:43.379Z,4.55
2023-04-16T04:46:59.628Z,4.85
2023-04-16T04:51:16.005Z,5.10
2023-04-16T04:55:32.372Z,5.03
2023-04-16T04:59:48.585Z,5.32
2023-04-16T05:04:05.120Z,4.70
2023-04-16T05:08:21.350Z,5.37
2023-04-16T05:12:37.556Z,5.53
2023-04-16T05:16:54.324Z,5.32
2023-04-16T05:21:10.515Z,5.53
2023-04-16T05:25:26.675Z,6.28
2023-04-16T05:29:42.841Z,7.00
2023-04-16T05:33:58.976Z,5.47
2023-04-16T05:38:15.107Z,6.93
2023-04-16T05:42:31.357Z,8.70
2023-04-16T05:46:47.637Z,11.52
2023-04-16T05:51:04.012Z,10.60
2023-04-16T05:55:20.261Z,7.45
2023-04-16T05:59:36.561Z,6.25
2023-04-16T06:03:52.953Z,6.28
2023-04-16T06:08:09.218Z,7.35
2023-04-16T06:12:25.686Z,7.07
2023-04-16T06:16:41.964Z,6.15
2023-04-16T06:20:59.646Z,6.30
2023-04-16T06:25:18.121Z,5.43
2023-04-16T06:29:41.124Z,5.00
2023-04-16T06:33:58.195Z,4.45
2023-04-16T06:38:14.706Z,5.12
2023-04-16T06:42:31.161Z,5.10
2023-04-16T06:46:47.442Z,4.65
2023-04-16T06:51:03.900Z,4.80
2023-04-16T06:55:20.141Z,4.30
2023-04-16T06:59:36.570Z,4.60
2023-04-16T07:03:53.125Z,4.68
2023-04-16T07:08:09.737Z,4.57
2023-04-16T07:12:25.987Z,4.72
2023-04-16T07:16:42.272Z,4.10
2023-04-16T07:20:58.578Z,4.22
2023-04-16T07:25:14.918Z,4.30
2023-04-16T07:29:31.195Z,4.35
2023-04-16T07:33:47.433Z,3.90
2023-04-16T07:38:03.639Z,4.18
2023-04-16T07:42:19.880Z,3.30
2023-04-16T07:46:43.634Z,3.50
2023-04-16T07:51:02.907Z,3.25
2023-04-16T07:55:19.170Z,3.55
2023-04-16T07:59:35.267Z,3.20
2023-04-16T08:03:52.206Z,3.17
2023-04-16T08:08:08.596Z,3.25
2023-04-16T08:12:24.878Z,2.95
2023-04-16T08:16:42.116Z,3.08
2023-04-16T08:20:58.428Z,3.03
2023-04-16T08:25:14.961Z,3.28
2023-04-16T08:29:31.297Z,3.17
2023-04-16T08:33:47.656Z,3.10
2023-04-16T08:38:05.059Z,3.17
2023-04-16T08:42:40.957Z,3.47
2023-04-16T08:46:59.292Z,3.17
2023-04-16T08:51:17.511Z,2.85
2023-04-16T08:55:39.047Z,2.67
2023-04-16T08:59:56.176Z,2.65
2023-04-16T09:04:14.331Z,2.53
2023-04-16T09:08:31.240Z,2.90
2023-04-16T09:12:47.564Z,2.30
2023-04-16T09:17:04.459Z,2.30
2023-04-16T09:21:23.799Z,2.10
2023-04-16T09:25:40.458Z,1.90
2023-04-16T09:29:56.767Z,1.87
2023-04-16T09:34:12.971Z,1.95
2023-04-16T09:38:48.228Z,1.87
2023-04-16T09:43:12.263Z,1.60
2023-04-16T09:47:41.717Z,1.60
2023-04-16T09:52:00.174Z,1.83
2023-04-16T09:56:16.768Z,1.62
2023-04-16T10:00:32.935Z,1.50
2023-04-16T10:04:51.146Z,1.30
2023-04-16T10:09:11.251Z,1.30
2023-04-16T10:13:31.458Z,1.58
2023-04-16T10:17:48.247Z,1.30
2023-04-16T10:22:05.466Z,1.60
2023-04-16T10:26:22.490Z,1.40
2023-04-16T10:30:39.804Z,1.62
2023-04-16T10:34:56.807Z,1.45
2023-04-16T10:39:16.905Z,1.50
2023-04-16T10:43:40.723Z,1.92
2023-04-16T10:47:58.758Z,1.27
2023-04-16T10:52:19.734Z,1.40
2023-04-16T10:56:37.134Z,1.40
2023-04-16T11:00:53.580Z,1.20
2023-04-16T11:05:10.013Z,1.10
2023-04-16T11:09:47.813Z,1.10
2023-04-16T11:14:04.996Z,1.02
2023-04-16T11:18:21.344Z,1.30
2023-04-16T11:22:38.538Z,1.00
2023-04-16T11:26:54.717Z,0.88
2023-04-16T11:31:12.952Z,1.52
2023-04-16T11:35:29.275Z,0.80
2023-04-16T11:39:54.443Z,0.88
2023-04-16T11:44:25.008Z,0.98
2023-04-16T11:48:51.839Z,1.00
2023-04-16T11:53:08.089Z,1.30
2023-04-16T11:57:31.600Z,1.15
2023-04-16T12:02:06.131Z,1.20
2023-04-16T12:06:24.321Z,0.90
2023-04-16T12:10:56.895Z,1.10
2023-04-16T12:15:13.123Z,1.10
2023-04-16T12:19:29.272Z,1.05
2023-04-16T12:23:45.549Z,1.12
2023-04-16T12:28:02.373Z,1.40
2023-04-16T12:32:25.015Z,1.20
2023-04-16T12:36:41.652Z,1.00
2023-04-16T12:40:58.593Z,1.10
2023-04-16T12:45:14.760Z,1.25
2023-04-16T12:49:31.100Z,0.80
2023-04-16T12:53:47.411Z,1.20
2023-04-16T12:58:03.718Z,1.10
2023-04-16T13:02:20.064Z,1.10
2023-04-16T13:06:37.986Z,0.93
2023-04-16T13:10:54.183Z,0.90
2023-04-16T13:15:11.090Z,0.95
2023-04-16T13:19:27.426Z,1.10
2023-04-16T13:23:43.690Z,1.20
2023-04-16T13:27:59.873Z,0.90
2023-04-16T13:32:16.279Z,1.17
2023-04-16T13:36:33.282Z,1.02
2023-04-16T13:40:49.471Z,1.08
2023-04-16T13:45:06.345Z,1.00
2023-04-16T13:49:23.122Z,0.98
2023-04-16T13:53:39.300Z,1.10
2023-04-16T13:57:56.607Z,1.12
2023-04-16T14:02:13.270Z,1.10
2023-04-16T14:06:29.594Z,1.05
2023-04-16T14:10:45.887Z,1.25
2023-04-16T14:15:04.583Z,0.95
2023-04-16T14:19:21.548Z,1.10
2023-04-16T14:23:37.807Z,0.80
2023-04-16T14:27:54.190Z,1.00
2023-04-16T14:32:10.556Z,1.20
2023-04-16T14:36:27.483Z,1.30
2023-04-16T14:40:43.785Z,0.80
2023-04-16T14:45:00.261Z,1.00
2023-04-16T14:49:16.838Z,0.73
2023-04-16T14:53:34.604Z,0.90
2023-04-16T14:57:51.490Z,0.85
2023-04-16T15:02:08.189Z,0.70
2023-04-16T15:06:24.505Z,0.82
2023-04-16T15:10:42.682Z,1.42
2023-04-16T15:15:00.174Z,1.02
2023-04-16T15:19:16.434Z,1.20
2023-04-16T15:23:32.732Z,1.20
2023-04-16T15:27:49.016Z,1.52
2023-04-16T15:32:05.474Z,1.65
2023-04-16T15:36:21.743Z,1.87
2023-04-16T15:40:38.003Z,3.00
2023-04-16T15:44:54.207Z,2.33
2023-04-16T15:49:10.775Z,1.85
2023-04-16T15:53:27.112Z,1.30
2023-04-16T15:57:43.432Z,1.10
2023-04-16T16:01:59.844Z,0.90
2023-04-16T16:06:18.057Z,0.95
2023-04-16T16:10:34.645Z,1.10
2023-04-16T16:14:51.201Z,1.00
2023-04-16T16:19:07.614Z,1.20
2023-04-16T16:23:24.136Z,1.25
2023-04-16T16:27:40.900Z,1.40
2023-04-16T16:31:57.329Z,1.30
2023-04-16T16:36:13.688Z,1.70
2023-04-16T16:40:31.029Z,1.60
2023-04-16T16:44:49.012Z,1.52
2023-04-16T16:49:06.242Z,1.52
2023-04-16T16:53:22.527Z,2.10
2023-04-16T16:57:39.780Z,1.67
2023-04-16T17:01:56.200Z,1.98
2023-04-16T17:06:12.556Z,1.80
2023-04-16T17:10:29.218Z,1.60
2023-04-16T17:14:49.751Z,1.87
2023-04-16T17:19:06.096Z,1.80
2023-04-16T17:23:22.709Z,1.60
2023-04-16T17:27:41.887Z,1.60
2023-04-16T17:31:58.553Z,1.77
2023-04-16T17:36:14.861Z,1.90
2023-04-16T17:40:31.191Z,2.05
2023-04-16T17:44:47.850Z,1.80
2023-04-16T17:49:04.174Z,2.17
2023-04-16T17:53:20.821Z,2.40
2023-04-16T17:57:37.532Z,2.10
2023-04-16T18:01:53.902Z,2.40
2023-04-16T18:06:10.211Z,2.28
2023-04-16T18:10:26.973Z,2.70
2023-04-16T18:14:44.987Z,2.20
2023-04-16T18:19:01.219Z,2.50
2023-04-16T18:23:17.554Z,2.62
2023-04-16T18:27:37.136Z,2.70
2023-04-16T18:31:55.416Z,2.75
2023-04-16T18:36:11.974Z,2.80
2023-04-16T18:40:29.490Z,2.58
2023-04-16T18:44:51.529Z,2.47
2023-04-16T18:49:08.423Z,2.65
2023-04-16T18:53:24.667Z,2.97
2023-04-16T18:57:41.055Z,3.10
2023-04-16T19:01:57.839Z,3.20
2023-04-16T19:06:14.163Z,3.42
2023-04-16T19:10:30.548Z,2.92
2023-04-16T19:14:46.783Z,3.33
2023-04-16T19:19:02.917Z,3.20
2023-04-16T19:23:19.383Z,3.00
2023-04-16T19:27:36.431Z,2.72
2023-04-16T19:31:52.800Z,2.83
2023-04-16T19:36:09.131Z,2.85
2023-04-16T19:40:25.437Z,2.90
2023-04-16T19:44:41.646Z,2.47
2023-04-16T19:48:57.872Z,3.05
2023-04-16T19:53:14.155Z,2.70
2023-04-16T19:57:30.717Z,2.67
2023-04-16T20:01:47.084Z,2.87
2023-04-16T20:06:05.586Z,2.20
2023-04-16T20:10:22.551Z,2.80
2023-04-16T20:14:38.955Z,2.70
2023-04-16T20:18:55.155Z,3.08
2023-04-16T20:23:11.430Z,2.78
2023-04-16T20:27:27.762Z,3.35
2023-04-16T20:31:46.160Z,3.22
2023-04-16T20:36:02.432Z,3.25
2023-04-16T20:40:18.693Z,3.20
2023-04-16T20:44:40.547Z,3.40
2023-04-16T20:48:56.819Z,2.92
2023-04-16T20:53:13.256Z,3.03
2023-04-16T20:57:29.987Z,2.95
2023-04-16T21:01:47.788Z,2.70
2023-04-16T21:06:04.593Z,3.00
2023-04-16T21:10:20.961Z,2.97
2023-04-16T21:14:37.295Z,2.85
2023-04-16T21:18:53.535Z,2.72
2023-04-16T21:23:09.761Z,3.00
2023-04-16T21:27:26.403Z,2.83
2023-04-16T21:31:42.700Z,2.70
2023-04-16T21:35:58.914Z,2.70
2023-04-16T21:40:15.171Z,2.80
2023-04-16T21:44:31.374Z,3.00
2023-04-16T21:48:48.668Z,2.83
2023-04-16T21:53:06.668Z,2.60
2023-04-16T21:57:23.011Z,2.65
2023-04-16T22:01:39.291Z,2.40
2023-04-16T22:06:02.598Z,2.30
2023-04-16T22:10:18.864Z,2.28
2023-04-16T22:14:43.938Z,2.47
2023-04-16T22:19:02.573Z,2.53
2023-04-16T22:23:18.796Z,2.42
2023-04-16T22:27:35.267Z,2.55
2023-04-16T22:31:51.579Z,2.28
2023-04-16T22:36:08.141Z,2.58
2023-04-16T22:40:24.447Z,2.53
2023-04-16T22:44:40.676Z,2.30
2023-04-16T22:48:57.875Z,2.20
2023-04-16T22:53:14.072Z,2.35
2023-04-16T22:57:30.456Z,2.37
2023-04-16T23:01:46.839Z,2.28
2023-04-16T23:06:04.269Z,2.70
2023-04-16T23:10:20.476Z,2.00
2023-04-16T23:14:37.177Z,2.40
2023-04-16T23:18:53.316Z,2.50
2023-04-16T23:23:09.522Z,2.50
2023-04-16T23:27:25.630Z,2.80
2023-04-16T23:31:42.000Z,2.60
2023-04-16T23:35:58.229Z,2.33
2023-04-16T23:40:14.513Z,3.20
2023-04-16T23:44:30.812Z,2.67
2023-04-16T23:48:46.962Z,3.10
2023-04-16T23:53:03.136Z,2.62
2023-04-16T23:57:19.402Z,2.92
